Time;durP1;ratioP1;P1;durP2;ratioP2;P2;SDS_P1;SDS_P2;PMS_P1;PMS_P2;Temp;Humidity;BMP_temperature;BMP_pressure;BME280_temperature;BME280_humidity;BME280_pressure;Samples;Min_cycle;Max_cycle;Signal;HPM_P1;HPM_P2
2023/02/14 00:01:45;;;;;;;23.50;14.80;;;;;;;1.05;99.51;102930.88;107903;1251;71753;-76
2023/02/14 00:04:12;;;;;;;24.90;13.40;;;;;;;1.01;99.31;102930.66;108077;1251;71197;-75
2023/02/14 00:06:39;;;;;;;22.20;13.90;;;;;;;0.97;99.28;102928.39;108002;1255;61339;-75
2023/02/14 00:09:11;;;;;;;20.90;12.50;;;;;;;0.93;99.25;102928.34;107989;1251;61240;-74
2023/02/14 00:11:38;;;;;;;21.10;13.20;;;;;;;0.91;99.29;102927.40;108205;1252;74440;-74
2023/02/14 00:16:52;;;;;;;20.60;12.60;;;;;;;0.86;99.40;102921.84;108030;1251;72564;-75
2023/02/14 00:19:20;;;;;;;22.40;13.70;;;;;;;0.84;99.59;102924.69;107934;1252;61237;-76
2023/02/14 00:21:47;;;;;;;26.00;14.90;;;;;;;0.83;99.79;102932.21;108183;1253;59155;-75
2023/02/14 00:24:16;;;;;;;27.60;17.30;;;;;;;0.83;99.95;102929.60;107887;1253;73764;-76
2023/02/14 00:26:43;;;;;;;36.60;20.30;;;;;;;0.81;99.87;102929.15;108286;1256;71257;-75
2023/02/14 00:29:13;;;;;;;35.70;19.90;;;;;;;0.79;100.00;102924.34;108637;1251;71365;-75
2023/02/14 00:31:40;;;;;;;36.70;20.00;;;;;;;0.77;99.92;102920.75;108600;1252;61227;-75
2023/02/14 00:34:08;;;;;;;29.80;16.90;;;;;;;0.75;99.98;102916.48;108403;1250;60133;-77
2023/02/14 00:36:35;;;;;;;35.00;18.20;;;;;;;0.74;99.88;102918.06;108333;1251;73701;-75
2023/02/14 00:39:07;;;;;;;29.10;17.10;;;;;;;0.72;99.87;102919.01;108540;1253;71674;-75
2023/02/14 00:41:35;;;;;;;29.30;16.70;;;;;;;0.72;99.90;102921.48;108612;1251;73421;-74
2023/02/14 00:44:02;;;;;;;29.90;16.60;;;;;;;0.72;99.99;102924.25;108453;1251;60573;-75
2023/02/14 00:46:29;;;;;;;29.40;16.30;;;;;;;0.71;99.98;102925.52;108179;1253;61495;-75
2023/02/14 00:48:56;;;;;;;30.80;16.80;;;;;;;0.69;100.00;102928.86;108294;1255;74705;-75
2023/02/14 00:51:24;;;;;;;30.30;16.80;;;;;;;0.68;99.99;102925.95;108187;1254;69692;-77
2023/02/14 00:53:51;;;;;;;29.10;17.50;;;;;;;0.67;100.00;102926.52;107798;1251;71284;-76
2023/02/14 00:56:19;;;;;;;30.40;17.10;;;;;;;0.65;99.97;102928.31;108583;1251;59904;-76
2023/02/14 00:58:46;;;;;;;29.90;17.20;;;;;;;0.65;100.00;102930.09;108652;1253;60238;-76
2023/02/14 01:01:17;;;;;;;31.10;17.70;;;;;;;0.64;99.99;102932.39;108392;1253;74643;-76
2023/02/14 01:03:44;;;;;;;29.60;16.80;;;;;;;0.63;100.00;102931.54;108365;1251;70918;-75
2023/02/14 01:06:11;;;;;;;30.00;17.00;;;;;;;0.62;100.00;102931.55;108197;1253;73732;-75
2023/02/14 01:08:38;;;;;;;31.00;16.90;;;;;;;0.61;100.00;102932.98;108145;1251;61146;-76
2023/02/14 01:11:15;;;;;;;32.60;17.10;;;;;;;0.61;100.00;102933.33;108487;1251;59006;-77
2023/02/14 01:13:43;;;;;;;34.50;17.20;;;;;;;0.61;100.00;102932.12;108029;1252;74349;-76
2023/02/14 01:16:13;;;;;;;32.30;17.60;;;;;;;0.60;100.00;102930.94;108610;1252;70275;-75
2023/02/14 01:18:40;;;;;;;32.50;18.40;;;;;;;0.60;100.00;102929.02;108169;1251;73236;-77
2023/02/14 01:21:14;;;;;;;35.60;19.80;;;;;;;0.61;100.00;102928.27;108115;1252;62193;-75
2023/02/14 01:23:41;;;;;;;35.90;18.90;;;;;;;0.63;100.00;102926.14;107715;1253;61241;-76
2023/02/14 01:26:09;;;;;;;38.50;20.00;;;;;;;0.65;100.00;102925.20;108237;1253;73784;-75
2023/02/14 01:28:36;;;;;;;34.70;18.60;;;;;;;0.66;100.00;102923.08;108170;1252;71374;-77
2023/02/14 01:31:11;;;;;;;37.60;19.00;;;;;;;0.65;100.00;102925.20;108038;1251;71143;-77
2023/02/14 01:33:40;;;;;;;34.30;19.40;;;;;;;0.64;100.00;102925.41;108214;1253;61752;-78
2023/02/14 01:36:15;;;;;;;39.00;17.90;;;;;;;0.63;100.00;102927.17;107737;1252;60037;-77
2023/02/14 01:38:42;;;;;;;46.70;18.00;;;;;;;0.61;100.00;102926.90;108044;1253;74482;-76
2023/02/14 01:41:08;;;;;;;33.50;17.10;;;;;;;0.56;100.00;102924.12;108661;1251;71251;-76
2023/02/14 01:43:54;;;;;;;34.60;18.60;;;;;;;0.52;100.00;102925.65;108883;1258;72727;-76
2023/02/14 01:46:22;;;;;;;34.30;17.80;;;;;;;0.48;100.00;102922.85;109105;1253;62369;-76
2023/02/14 01:48:49;;;;;;;31.40;18.00;;;;;;;0.45;100.00;102923.98;108159;1251;60122;-76
2023/02/14 01:51:18;;;;;;;33.60;18.20;;;;;;;0.46;100.00;102924.48;109084;1251;74092;-76
2023/02/14 01:53:46;;;;;;;35.80;19.40;;;;;;;0.49;100.00;102923.16;108204;1256;71827;-76
2023/02/14 01:56:23;;;;;;;35.70;19.20;;;;;;;0.51;100.00;102921.70;107948;1252;71531;-75
2023/02/14 01:58:52;;;;;;;35.90;19.60;;;;;;;0.53;100.00;102917.79;108142;1255;61243;-76
2023/02/14 02:01:19;;;;;;;37.90;20.20;;;;;;;0.54;100.00;102917.05;108274;1253;59400;-75
2023/02/14 02:03:51;;;;;;;38.30;19.40;;;;;;;0.55;100.00;102919.64;108279;1251;75961;-76
2023/02/14 02:06:27;;;;;;;39.10;21.00;;;;;;;0.56;100.00;102915.78;108013;1251;70010;-76
2023/02/14 02:09:20;;;;;;;42.20;20.90;;;;;;;0.56;100.00;102913.85;108245;1252;72955;-77
2023/02/14 02:11:47;;;;;;;37.40;19.30;;;;;;;0.58;100.00;102919.02;108011;1251;61525;-74
2023/02/14 02:14:17;;;;;;;38.80;20.70;;;;;;;0.58;100.00;102916.05;108305;1253;59344;-76
2023/02/14 02:17:21;;;;;;;43.20;21.50;;;;;;;0.59;100.00;102915.98;108179;1253;73754;-76
2023/02/14 02:20:11;;;;;;;40.80;20.90;;;;;;;0.61;100.00;102908.25;108377;1252;69968;-77
2023/02/14 02:23:42;;;;;;;36.00;19.90;;;;;;;0.63;100.00;102901.60;108209;1251;71957;-76
2023/02/14 02:26:54;;;;;;;37.80;19.90;;;;;;;0.64;100.00;102898.41;107679;1259;62771;-76
2023/02/14 02:30:07;;;;;;;35.80;20.10;;;;;;;0.64;100.00;102892.34;107766;1259;59237;-76
2023/02/14 02:32:48;;;;;;;39.30;20.40;;;;;;;0.65;100.00;102886.90;107518;1260;75154;-75
2023/02/14 02:36:05;;;;;;;40.00;20.30;;;;;;;0.64;100.00;102883.98;108172;1255;69765;-78
2023/02/14 02:38:54;;;;;;;33.70;19.50;;;;;;;0.63;100.00;102880.33;107876;1254;73537;-75
2023/02/14 02:42:02;;;;;;;34.10;18.80;;;;;;;0.63;100.00;102874.59;108417;1251;61179;-76
2023/02/14 02:44:58;;;;;;;34.50;19.30;;;;;;;0.64;100.00;102873.01;107741;1251;61092;-76
2023/02/14 02:47:51;;;;;;;37.80;19.70;;;;;;;0.63;100.00;102868.52;108415;1253;74445;-76
2023/02/14 02:53:35;;;;;;;33.20;19.00;;;;;;;0.61;100.00;102868.73;108038;1251;72388;-76
2023/02/14 02:59:05;;;;;;;34.90;18.40;;;;;;;0.58;100.00;102870.78;108349;1251;61287;-76
2023/02/14 03:01:36;;;;;;;33.30;18.40;;;;;;;0.58;100.00;102871.48;108109;1252;76057;-76
2023/02/14 03:06:53;;;;;;;35.60;19.10;;;;;;;0.55;100.00;102866.71;108170;1252;75121;-76
2023/02/14 03:09:23;;;;;;;34.80;19.10;;;;;;;0.55;100.00;102870.55;107636;1252;61091;-77
2023/02/14 03:12:17;;;;;;;34.70;19.10;;;;;;;0.53;100.00;102866.60;108567;1253;59241;-76
2023/02/14 03:14:55;;;;;;;34.30;18.50;;;;;;;0.52;100.00;102861.58;107136;1252;75007;-77
2023/02/14 03:17:33;;;;;;;33.50;17.90;;;;;;;0.51;100.00;102858.86;107588;1251;71007;-75
2023/02/14 03:20:16;;;;;;;33.40;18.30;;;;;;;0.47;100.00;102856.75;107360;1253;73065;-76
2023/02/14 03:23:11;;;;;;;35.00;18.30;;;;;;;0.45;100.00;102859.95;107338;1253;61276;-76
2023/02/14 03:25:54;;;;;;;33.10;18.10;;;;;;;0.41;100.00;102853.31;107740;1253;61095;-77
2023/02/14 03:28:41;;;;;;;30.10;17.30;;;;;;;0.36;100.00;102856.05;107319;1253;72141;-75
2023/02/14 03:31:33;;;;;;;32.40;17.40;;;;;;;0.33;100.00;102852.34;107463;1253;71032;-77
2023/02/14 03:34:11;;;;;;;31.70;18.10;;;;;;;0.33;100.00;102848.34;107277;1257;72785;-77
2023/02/14 03:36:55;;;;;;;37.50;19.00;;;;;;;0.34;100.00;102845.02;107412;1253;61235;-76
2023/02/14 03:39:34;;;;;;;36.40;18.40;;;;;;;0.34;100.00;102845.19;107482;1252;61285;-76
2023/02/14 03:42:08;;;;;;;36.30;18.60;;;;;;;0.35;100.00;102841.30;107798;1253;76176;-76
2023/02/14 03:44:38;;;;;;;38.50;18.90;;;;;;;0.36;100.00;102836.94;107187;1255;71114;-81
2023/02/14 03:47:12;;;;;;;36.70;18.30;;;;;;;0.37;100.00;102836.88;107428;1253;71170;-76
2023/02/14 03:49:47;;;;;;;36.50;18.00;;;;;;;0.37;100.00;102835.16;107667;1253;61316;-77
2023/02/14 03:52:17;;;;;;;35.60;18.60;;;;;;;0.37;100.00;102832.88;107310;1255;61208;-76
2023/02/14 03:54:47;;;;;;;35.20;18.80;;;;;;;0.37;100.00;102830.64;107618;1253;75751;-76
2023/02/14 03:57:20;;;;;;;35.00;18.20;;;;;;;0.36;100.00;102828.75;107239;1253;69676;-75
2023/02/14 03:59:47;;;;;;;36.00;18.10;;;;;;;0.34;100.00;102833.51;107374;1254;72576;-75
2023/02/14 04:02:37;;;;;;;36.70;17.90;;;;;;;0.33;100.00;102829.56;107404;1252;61676;-77
2023/02/14 04:05:12;;;;;;;31.70;16.50;;;;;;;0.30;100.00;102822.52;107543;1252;61164;-76
2023/02/14 04:07:52;;;;;;;31.30;16.60;;;;;;;0.28;100.00;102821.23;107143;1252;74410;-77
2023/02/14 04:10:20;;;;;;;31.20;17.10;;;;;;;0.25;100.00;102824.09;107617;1252;70035;-75
2023/02/14 04:12:47;;;;;;;33.00;17.50;;;;;;;0.23;100.00;102825.56;107351;1252;72811;-78
2023/02/14 04:15:17;;;;;;;31.90;16.40;;;;;;;0.21;100.00;102820.95;107342;1252;61753;-75
2023/02/14 04:20:30;;;;;;;32.40;17.00;;;;;;;0.16;100.00;102823.55;107861;1254;75160;-75
2023/02/14 04:22:57;;;;;;;30.30;17.30;;;;;;;0.14;100.00;102821.69;107165;1253;69991;-77
2023/02/14 04:25:25;;;;;;;31.20;17.30;;;;;;;0.12;100.00;102818.85;107312;1253;71838;-77
2023/02/14 04:27:52;;;;;;;32.10;17.40;;;;;;;0.11;100.00;102819.39;107176;1253;61354;-76
2023/02/14 04:30:21;;;;;;;32.00;16.90;;;;;;;0.09;100.00;102814.09;107297;1252;61362;-77
2023/02/14 04:32:48;;;;;;;29.90;16.60;;;;;;;0.07;100.00;102812.07;107486;1253;73228;-77
2023/02/14 04:35:15;;;;;;;29.10;16.00;;;;;;;0.04;100.00;102813.02;106916;1254;70085;-77
2023/02/14 04:37:42;;;;;;;60.30;18.70;;;;;;;0.03;100.00;102811.85;107467;1253;70279;-77
2023/02/14 04:40:10;;;;;;;96.30;20.40;;;;;;;0.02;100.00;102812.60;107428;1253;61221;-76
2023/02/14 04:42:37;;;;;;;78.50;18.50;;;;;;;0.01;100.00;102812.27;107488;1252;61119;-75
2023/02/14 04:45:04;;;;;;;128.20;20.10;;;;;;;-0.01;100.00;102815.44;107775;1253;74395;-76
2023/02/14 04:47:32;;;;;;;76.60;17.90;;;;;;;-0.03;100.00;102810.11;107523;1253;69935;-75
2023/02/14 04:49:58;;;;;;;145.30;19.70;;;;;;;-0.04;100.00;102804.95;107867;1253;73040;-75
2023/02/14 04:52:25;;;;;;;95.60;17.30;;;;;;;-0.04;100.00;102805.14;107716;1256;60001;-75
2023/02/14 04:54:53;;;;;;;97.50;16.80;;;;;;;-0.05;100.00;102804.96;107600;1257;60116;-75
2023/02/14 04:57:20;;;;;;;70.50;14.90;;;;;;;-0.06;100.00;102798.58;107700;1255;74700;-75
2023/02/14 04:59:46;;;;;;;63.10;13.90;;;;;;;-0.07;100.00;102800.55;107240;1258;71018;-75
2023/02/14 05:02:14;;;;;;;73.30;15.20;;;;;;;-0.09;100.00;102799.73;107147;1258;73227;-76
2023/02/14 05:04:41;;;;;;;89.20;16.30;;;;;;;-0.12;100.00;102801.92;107399;1253;61264;-75
2023/02/14 05:07:08;;;;;;;57.50;13.90;;;;;;;-0.15;100.00;102806.04;107371;1253;61122;-75
2023/02/14 05:09:39;;;;;;;75.50;14.90;;;;;;;-0.18;100.00;102811.53;107435;1253;73602;-76
2023/02/14 05:12:07;;;;;;;63.00;17.30;;;;;;;-0.22;100.00;102809.77;107399;1253;70293;-75
2023/02/14 05:14:34;;;;;;;57.60;18.30;;;;;;;-0.25;100.00;102807.77;107556;1255;71628;-76
2023/02/14 05:17:04;;;;;;;71.10;20.90;;;;;;;-0.27;100.00;102805.77;107256;1253;61193;-75
2023/02/14 05:19:31;;;;;;;38.40;13.90;;;;;;;-0.31;100.00;102807.63;107388;1253;61345;-76
2023/02/14 05:21:58;;;;;;;45.30;12.60;;;;;;;-0.36;100.00;102803.46;107260;1253;73406;-76
2023/02/14 05:24:25;;;;;;;39.50;12.20;;;;;;;-0.41;100.00;102799.76;107031;1253;71876;-75
2023/02/14 05:26:52;;;;;;;31.20;10.80;;;;;;;-0.42;100.00;102794.27;107307;1253;73171;-78
2023/02/14 05:29:19;;;;;;;24.00;10.30;;;;;;;-0.45;100.00;102793.86;107215;1253;61772;-76
2023/02/14 05:31:46;;;;;;;27.70;10.00;;;;;;;-0.49;100.00;102794.84;107180;1254;62107;-77
2023/02/14 05:34:14;;;;;;;31.30;9.90;;;;;;;-0.51;100.00;102795.77;107181;1257;73803;-75
2023/02/14 05:36:41;;;;;;;33.60;10.50;;;;;;;-0.53;100.00;102795.67;107469;1252;71213;-75
2023/02/14 05:39:08;;;;;;;44.30;10.50;;;;;;;-0.53;100.00;102795.67;107156;1253;72574;-77
2023/02/14 05:41:35;;;;;;;20.90;9.50;;;;;;;-0.53;100.00;102789.23;107474;1256;60698;-75
2023/02/14 05:44:02;;;;;;;22.10;9.00;;;;;;;-0.54;100.00;102795.38;107704;1253;61116;-77
2023/02/14 05:46:29;;;;;;;26.50;9.90;;;;;;;-0.58;100.00;102792.20;107037;1253;476433;-75
2023/02/14 05:48:56;;;;;;;20.70;9.50;;;;;;;-0.61;100.00;102794.55;107631;1253;70257;-76
2023/02/14 05:51:23;;;;;;;32.60;10.40;;;;;;;-0.63;100.00;102798.61;107401;1253;72972;-75
2023/02/14 05:53:50;;;;;;;35.00;11.30;;;;;;;-0.63;100.00;102799.83;107465;1255;61219;-74
2023/02/14 05:56:17;;;;;;;31.80;11.40;;;;;;;-0.64;100.00;102798.80;107332;1254;61256;-74
2023/02/14 05:58:44;;;;;;;42.50;12.40;;;;;;;-0.64;100.00;102801.23;107448;1255;74479;-75
2023/02/14 06:01:11;;;;;;;54.80;12.80;;;;;;;-0.62;100.00;102801.37;107305;1256;71864;-75
2023/02/14 06:03:38;;;;;;;40.60;12.60;;;;;;;-0.62;100.00;102801.17;107225;1255;73418;-75
2023/02/14 06:06:05;;;;;;;44.10;14.30;;;;;;;-0.61;100.00;102804.98;107473;1253;62378;-74
2023/02/14 06:08:32;;;;;;;42.30;12.70;;;;;;;-0.62;100.00;102804.30;107789;1252;59710;-74
2023/02/14 06:10:59;;;;;;;30.30;12.40;;;;;;;-0.60;100.00;102804.93;107631;1253;74715;-74
2023/02/14 06:13:26;;;;;;;28.20;11.40;;;;;;;-0.59;100.00;102807.70;107247;1253;70890;-74
2023/02/14 06:15:53;;;;;;;27.10;11.90;;;;;;;-0.57;100.00;102805.90;107492;1255;72553;-76
2023/02/14 06:18:21;;;;;;;26.30;11.50;;;;;;;-0.58;100.00;102806.98;107249;1254;60897;-74
2023/02/14 06:20:48;;;;;;;29.60;11.10;;;;;;;-0.58;100.00;102804.52;107435;1253;61324;-76
2023/02/14 06:23:14;;;;;;;21.60;11.00;;;;;;;-0.58;100.00;102801.92;107379;1253;74400;-74
2023/02/14 06:25:42;;;;;;;22.00;10.40;;;;;;;-0.59;100.00;102797.80;108377;1251;69854;-74
2023/02/14 06:28:09;;;;;;;22.30;10.70;;;;;;;-0.60;100.00;102794.00;107842;1255;73067;-75
2023/02/14 06:30:36;;;;;;;30.00;11.00;;;;;;;-0.64;100.00;102792.56;107318;1254;61188;-74
2023/02/14 06:33:03;;;;;;;19.30;11.40;;;;;;;-0.68;100.00;102798.44;107255;1253;64212;-77
2023/02/14 06:35:30;;;;;;;17.20;10.70;;;;;;;-0.70;100.00;102797.80;107118;1257;74438;-75
2023/02/14 06:37:58;;;;;;;19.00;10.50;;;;;;;-0.73;100.00;102800.52;107250;1254;69933;-75
2023/02/14 06:40:25;;;;;;;16.00;9.60;;;;;;;-0.73;100.00;102804.84;107545;1254;73870;-75
2023/02/14 06:42:52;;;;;;;17.80;10.40;;;;;;;-0.74;100.00;102809.93;107986;1256;61677;-74
2023/02/14 06:45:19;;;;;;;17.90;10.20;;;;;;;-0.76;100.00;102814.16;107580;1253;61146;-75
2023/02/14 06:47:48;;;;;;;16.80;10.20;;;;;;;-0.76;100.00;102813.47;107421;1256;75174;-73
2023/02/14 06:50:15;;;;;;;19.20;10.60;;;;;;;-0.77;100.00;102816.80;107557;1251;70713;-74
2023/02/14 06:52:43;;;;;;;17.70;11.30;;;;;;;-0.75;100.00;102818.29;107462;1258;70884;-76
2023/02/14 06:55:12;;;;;;;18.50;11.90;;;;;;;-0.73;100.00;102819.61;107390;1252;62014;-75
2023/02/14 06:57:39;;;;;;;15.60;10.30;;;;;;;-0.71;100.00;102819.73;107424;1255;61221;-75
2023/02/14 07:00:10;;;;;;;15.10;9.90;;;;;;;-0.71;100.00;102821.62;107699;1254;73534;-75
2023/02/14 07:02:37;;;;;;;15.60;10.10;;;;;;;-0.70;100.00;102818.47;107491;1251;70760;-74
2023/02/14 07:05:17;;;;;;;;;;;;;;;;;;;;;
2023/02/14 07:07:45;;;;;;;16.80;10.40;;;;;;;-0.67;100.00;102823.41;107282;1254;61304;-73
2023/02/14 07:10:15;;;;;;;19.20;10.50;;;;;;;-0.67;100.00;102821.68;107365;1252;63396;-74
2023/02/14 07:12:42;;;;;;;17.70;10.10;;;;;;;-0.65;100.00;102823.52;107374;1252;73358;-74
2023/02/14 07:15:16;;;;;;;19.80;11.50;;;;;;;-0.60;100.00;102822.67;107473;1255;69894;-74
2023/02/14 07:17:43;;;;;;;19.30;11.80;;;;;;;-0.56;100.00;102820.98;107491;1254;72403;-75
2023/02/14 07:20:11;;;;;;;20.30;12.30;;;;;;;-0.52;100.00;102823.98;107918;1256;61227;-74
2023/02/14 07:22:38;;;;;;;23.70;13.20;;;;;;;-0.48;100.00;102823.84;107560;1254;61396;-74
2023/02/14 07:25:06;;;;;;;21.60;12.40;;;;;;;-0.44;100.00;102825.61;107432;1255;73176;-73
2023/02/14 07:27:33;;;;;;;19.20;11.50;;;;;;;-0.41;100.00;102825.51;107341;1256;68967;-74
2023/02/14 07:30:00;;;;;;;19.40;11.70;;;;;;;-0.39;100.00;102826.33;107036;1256;71458;-76
2023/02/14 07:32:27;;;;;;;20.80;12.00;;;;;;;-0.36;100.00;102827.42;107588;1254;61783;-76
2023/02/14 07:34:55;;;;;;;20.40;12.00;;;;;;;-0.32;100.00;102827.48;107373;1252;62251;-76
2023/02/14 07:37:22;;;;;;;18.60;10.90;;;;;;;-0.27;100.00;102823.32;107292;1257;74535;-76
2023/02/14 07:39:49;;;;;;;18.80;11.20;;;;;;;-0.24;100.00;102822.54;107708;1253;69767;-75
2023/02/14 07:42:16;;;;;;;19.20;11.30;;;;;;;-0.21;100.00;102819.62;107321;1253;72850;-76
2023/02/14 07:44:45;;;;;;;18.50;11.30;;;;;;;-0.14;100.00;102814.89;107604;1254;61710;-77
2023/02/14 07:47:17;;;;;;;19.10;11.70;;;;;;;-0.09;100.00;102812.77;107386;1251;61140;-76
2023/02/14 07:49:44;;;;;;;20.80;12.20;;;;;;;-0.03;100.00;102810.81;107497;1253;73239;-72
2023/02/14 07:52:11;;;;;;;19.90;12.20;;;;;;;0.04;100.00;102813.21;107537;1253;71872;-74
2023/02/14 07:54:38;;;;;;;19.30;12.00;;;;;;;0.12;100.00;102805.42;107341;1254;71207;-72
2023/02/14 07:57:05;;;;;;;19.90;11.80;;;;;;;0.20;100.00;102804.27;107517;1254;61170;-73
2023/02/14 07:59:32;;;;;;;19.50;12.10;;;;;;;0.25;100.00;102803.73;107290;1254;61276;-72
2023/02/14 08:01:59;;;;;;;19.10;11.60;;;;;;;0.32;100.00;102804.52;107276;1252;74398;-74
2023/02/14 08:04:26;;;;;;;19.70;12.00;;;;;;;0.41;100.00;102804.90;107484;1253;72132;-74
2023/02/14 08:06:53;;;;;;;20.60;12.50;;;;;;;0.50;100.00;102804.92;107229;1256;72502;-76
2023/02/14 08:09:23;;;;;;;20.80;12.90;;;;;;;0.62;100.00;102802.39;107243;1251;61215;-74
2023/02/14 08:14:38;;;;;;;21.10;12.90;;;;;;;0.84;100.00;102803.77;107065;1254;73685;-75
2023/02/14 08:17:06;;;;;;;20.10;12.90;;;;;;;0.97;100.00;102803.98;107463;1253;69660;-74
2023/02/14 08:19:33;;;;;;;23.30;13.10;;;;;;;1.09;100.00;102807.50;107142;1253;72729;-74
2023/02/14 08:22:00;;;;;;;19.10;11.80;;;;;;;1.19;100.00;102810.76;107530;1251;61210;-73
2023/02/14 08:24:27;;;;;;;20.20;12.40;;;;;;;1.31;100.00;102809.44;107386;1252;61225;-73
2023/02/14 08:26:54;;;;;;;20.90;13.20;;;;;;;1.41;100.00;102812.30;107076;1255;73272;-74
2023/02/14 08:29:21;;;;;;;19.70;13.20;;;;;;;1.51;100.00;102808.93;107461;1252;72153;-72
2023/02/14 08:31:48;;;;;;;20.70;13.60;;;;;;;1.59;100.00;102806.14;107280;1254;71530;-73
2023/02/14 08:34:16;;;;;;;22.60;14.00;;;;;;;1.67;100.00;102803.75;107351;1253;61286;-72
2023/02/14 08:36:43;;;;;;;24.40;15.50;;;;;;;1.76;100.00;102802.12;107398;1253;61144;-73
2023/02/14 08:39:09;;;;;;;24.50;14.80;;;;;;;1.90;100.00;102804.48;107321;1252;73834;-72
2023/02/14 08:41:36;;;;;;;22.70;13.90;;;;;;;2.06;100.00;102804.49;107235;1251;71071;-77
2023/02/14 08:44:03;;;;;;;19.60;12.70;;;;;;;2.18;100.00;102804.83;107414;1254;73186;-75
2023/02/14 08:46:30;;;;;;;19.40;12.80;;;;;;;2.28;100.00;102809.64;107372;1252;61302;-75
2023/02/14 08:48:57;;;;;;;17.80;12.40;;;;;;;2.39;100.00;102804.95;107325;1254;61257;-74
2023/02/14 08:51:24;;;;;;;18.10;11.50;;;;;;;2.48;100.00;102801.40;107544;1255;73140;-75
2023/02/14 08:53:52;;;;;;;18.90;11.90;;;;;;;2.57;100.00;102802.02;107467;1254;69890;-76
2023/02/14 08:56:21;;;;;;;17.40;12.20;;;;;;;2.70;100.00;102803.01;107553;1254;71326;-76
2023/02/14 08:58:51;;;;;;;18.20;11.80;;;;;;;2.81;100.00;102801.80;107299;1253;61254;-77
2023/02/14 09:01:18;;;;;;;16.60;11.70;;;;;;;2.93;100.00;102798.06;107566;1254;63214;-75
2023/02/14 09:03:45;;;;;;;17.30;11.60;;;;;;;3.06;100.00;102799.55;107212;1254;74368;-78
2023/02/14 09:06:15;;;;;;;18.00;11.90;;;;;;;3.18;100.00;102798.59;107227;1254;69979;-76
2023/02/14 09:08:45;;;;;;;18.70;11.80;;;;;;;3.32;100.00;102794.06;107130;1252;71558;-79
2023/02/14 09:11:21;;;;;;;18.00;12.10;;;;;;;3.46;100.00;102793.89;107508;1255;61216;-75
2023/02/14 09:13:49;;;;;;;17.20;11.60;;;;;;;3.61;100.00;102793.68;107920;1252;61239;-77
2023/02/14 09:16:18;;;;;;;17.40;11.90;;;;;;;3.76;100.00;102794.33;107396;1253;74793;-76
2023/02/14 09:18:46;;;;;;;18.30;11.90;;;;;;;3.89;100.00;102793.64;107187;1254;72361;-74
2023/02/14 09:21:16;;;;;;;19.00;12.80;;;;;;;4.02;100.00;102791.23;107056;1254;71825;-74
2023/02/14 09:23:43;;;;;;;16.30;11.30;;;;;;;4.14;100.00;102789.34;107391;1252;61317;-73
2023/02/14 09:26:12;;;;;;;17.50;11.90;;;;;;;4.26;100.00;102789.23;107349;1255;61238;-74
2023/02/14 09:28:40;;;;;;;18.10;11.90;;;;;;;4.43;99.97;102789.56;107355;1254;73489;-73
2023/02/14 09:31:14;;;;;;;15.10;10.40;;;;;;;4.57;99.71;102787.40;107510;1254;72248;-73
2023/02/14 09:33:41;;;;;;;17.30;11.60;;;;;;;4.69;98.82;102789.02;107735;1254;72280;-73
2023/02/14 09:36:11;;;;;;;16.70;10.90;;;;;;;4.82;98.68;102793.20;107183;1256;61322;-75
2023/02/14 09:38:38;;;;;;;13.70;10.30;;;;;;;4.97;98.80;102780.08;107081;1255;61278;-74
2023/02/14 09:41:07;;;;;;;14.40;10.20;;;;;;;5.13;98.78;102781.45;107379;1254;74631;-74
2023/02/14 09:44:05;;;;;;;14.50;9.90;;;;;;;5.30;98.37;102777.32;107402;1254;71062;-74
2023/02/14 09:46:40;;;;;;;13.80;10.00;;;;;;;5.46;97.30;102773.96;107419;1252;72683;-73
2023/02/14 09:49:16;;;;;;;12.10;9.20;;;;;;;5.61;97.09;102779.20;107452;1253;61525;-73
2023/02/14 09:51:47;;;;;;;14.40;9.70;;;;;;;5.78;97.01;102775.04;107603;1253;59404;-73
2023/02/14 09:54:21;;;;;;;12.60;9.60;;;;;;;5.93;95.98;102773.11;107174;1254;74249;-74
2023/02/14 09:57:10;;;;;;;13.30;9.10;;;;;;;6.09;95.85;102771.39;107468;1254;70296;-73
2023/02/14 09:59:45;;;;;;;13.10;9.00;;;;;;;6.24;94.54;102764.83;107136;1254;72764;-75
2023/02/14 10:02:21;;;;;;;13.60;9.80;;;;;;;6.38;93.83;102767.54;107358;1254;61158;-73
2023/02/14 10:05:17;;;;;;;12.70;9.20;;;;;;;6.51;93.66;102764.59;107539;1255;61122;-74
2023/02/14 10:08:11;;;;;;;13.80;9.60;;;;;;;6.70;93.58;102771.66;107563;1252;75798;-73
2023/02/14 10:10:38;;;;;;;13.10;9.40;;;;;;;6.89;93.46;102769.16;107276;1253;71242;-73
2023/02/14 10:13:09;;;;;;;13.50;9.50;;;;;;;7.06;93.22;102768.80;107322;1254;70814;-73
2023/02/14 10:15:41;;;;;;;12.90;9.50;;;;;;;7.21;92.67;102765.84;107494;1254;61148;-74
2023/02/14 10:18:15;;;;;;;13.10;9.20;;;;;;;7.39;92.32;102764.29;107139;1253;61116;-75
2023/02/14 10:20:51;;;;;;;13.00;9.50;;;;;;;7.54;92.06;102763.63;107473;1254;72935;-76
2023/02/14 10:23:45;;;;;;;11.60;8.60;;;;;;;7.69;91.52;102762.44;107600;1253;69772;-73
2023/02/14 10:26:20;;;;;;;13.00;8.70;;;;;;;7.86;90.45;102764.10;107727;1254;74361;-72
2023/02/14 10:28:49;;;;;;;13.10;9.10;;;;;;;8.00;89.87;102765.94;107493;1252;62084;-73
2023/02/14 10:31:30;;;;;;;11.80;8.60;;;;;;;8.09;88.92;102763.52;107245;1253;61295;-74
2023/02/14 10:34:15;;;;;;;12.20;9.10;;;;;;;8.21;88.73;102765.14;107421;1254;72818;-75
2023/02/14 10:37:01;;;;;;;12.20;8.90;;;;;;;8.33;87.85;102765.19;107383;1253;69992;-73
2023/02/14 10:39:53;;;;;;;12.40;8.70;;;;;;;8.43;87.17;102761.70;107489;1252;71338;-74
2023/02/14 10:42:47;;;;;;;11.80;9.00;;;;;;;8.56;86.49;102759.92;107272;1257;61858;-72
2023/02/14 10:45:25;;;;;;;11.50;8.30;;;;;;;8.69;86.36;102760.76;107545;1253;59846;-73
2023/02/14 10:48:15;;;;;;;13.00;8.90;;;;;;;8.79;85.11;102761.73;107226;1255;73147;-72
2023/02/14 10:50:51;;;;;;;13.40;9.10;;;;;;;8.93;84.99;102756.14;107346;1252;69313;-73
2023/02/14 10:53:30;;;;;;;11.20;8.30;;;;;;;9.07;85.06;102749.68;107217;1253;72200;-72
2023/02/14 10:56:03;;;;;;;11.10;8.30;;;;;;;9.22;84.83;102754.54;107019;1253;61342;-74
2023/02/14 10:58:32;;;;;;;11.70;8.50;;;;;;;9.34;84.25;102751.48;107303;1254;61257;-72
2023/02/14 11:01:01;;;;;;;13.80;8.50;;;;;;;9.49;83.64;102745.25;107820;1253;74968;-74
2023/02/14 11:03:29;;;;;;;11.10;8.00;;;;;;;9.65;83.70;102741.02;107492;1252;71675;-74
2023/02/14 11:05:56;;;;;;;11.90;8.30;;;;;;;9.74;82.40;102731.27;107604;1253;72704;-73
2023/02/14 11:08:35;;;;;;;11.10;8.30;;;;;;;9.85;82.16;102730.45;107525;1252;61720;-73
2023/02/14 11:11:26;;;;;;;11.10;8.30;;;;;;;9.96;81.34;102725.10;107384;1253;62184;-74
2023/02/14 11:13:53;;;;;;;13.40;8.50;;;;;;;10.10;81.01;102719.43;107539;1254;73899;-72
2023/02/14 11:16:38;;;;;;;10.40;7.70;;;;;;;10.20;80.32;102718.78;107526;1253;70045;-78
2023/02/14 11:19:17;;;;;;;11.40;7.70;;;;;;;10.28;78.01;102716.48;107769;1253;71338;-74
2023/02/14 11:21:46;;;;;;;12.60;8.60;;;;;;;10.29;76.50;102711.24;107665;1253;62064;-73
2023/02/14 11:24:37;;;;;;;9.80;7.30;;;;;;;10.34;77.35;102710.86;107168;1252;62468;-73
2023/02/14 11:27:09;;;;;;;10.00;7.20;;;;;;;10.44;78.05;102705.30;107233;1252;74857;-74
2023/02/14 11:29:51;;;;;;;9.40;7.00;;;;;;;10.56;77.42;102700.73;107511;1252;69531;-74
2023/02/14 11:32:33;;;;;;;9.30;6.80;;;;;;;10.71;75.79;102702.95;107429;1254;72405;-74
2023/02/14 11:35:23;;;;;;;9.30;7.10;;;;;;;10.82;75.70;102697.41;107438;1252;60537;-72
2023/02/14 11:37:52;;;;;;;9.10;6.60;;;;;;;10.93;73.83;102696.45;107461;1254;61871;-76
2023/02/14 11:40:36;;;;;;;10.80;7.00;;;;;;;10.94;72.23;102694.79;107355;1256;74380;-73
2023/02/14 11:43:09;;;;;;;11.10;6.90;;;;;;;11.02;73.31;102690.73;107031;1256;71498;-74
2023/02/14 11:45:42;;;;;;;10.60;7.50;;;;;;;11.23;73.54;102689.73;107570;1254;71285;-74